메인 페이지
METAR-TAF:

METAR-TAF

공항 :

버뮤다, 버뮤다

위도: 32-22N, 경도: 064-41W, 고도: 6m

현재 날씨관측

예보는 29분 전, 21:55시(UTC)에 발표되었습니다.
18kt, 순간 최대 풍속 29kt
온도 21°C
습도 78%
기압 1016 hPa
시정 10km 이상
고도 2100ft 상공 구름 보통
고도 13000ft 상공 구름 많음
고도 30000ft 상공 구름 많음

METAR: TXKF 202155Z 18018G29KT 9999 SCT021 BKN130 BKN300 21/17 Q1016

시각: 18:24 (22:24 UTC)

예보

예보는 4 시간 53분 전, 17:31시(UTC)에 발표되었습니다.
예보 대상 시간: 20일 18시부터 21일 18시까지 (UTC)
25kt
시정 10km 이상
고도 2000ft 상공 구름 보통
고도 30000ft 상공 구름 많음
전환 중
21일 07시부터 21일 09시까지 (UTC)
시정: 6000m
고도 800ft 상공 구름 조금
고도 1300ft 상공 구름 많음
약한비
확률 40% :
일시적
21일 07시부터 21일 11시까지 (UTC)
남남서30kt, 순간 최대 풍속 40kt
시정: 3200m
소나기
확률 30% :
일시적
21일 08시부터 21일 11시까지 (UTC)
남남서35kt, 순간 최대 풍속 45kt
시정: 1600m
고도 700ft 상공 구름 많음, 적란운.
뇌우, 비
전환 중
21일 10시부터 21일 12시까지 (UTC)
서남서20kt
시정 10km 이상
고도 1500ft 상공 구름 보통
고도 3500ft 상공 구름 많음
시계 내 소나기
전환 중
21일 16시부터 21일 18시까지 (UTC)
서북서25kt, 순간 최대 풍속 35kt

TAF: TXKF 201731Z 2018/2118 18025KT 9999 SCT020 BKN300 BECMG 2107/2109 6000 -RA FEW008 BKN013 PROB40 TEMPO 2107/2111 20030G40KT 3200 SHRA PROB30 TEMPO 2108/2111 21035G45KT 1600 TSRA BKN007CB BECMG 2110/2112 24020KT 9999 VCSH SCT015 BKN035 BECMG 2116/2118 29025G35KT

4,000개 이상의 공항 관측 자료 및 예보 (METAR 및 TAF 보고).

지도상에서 검색 가능한 기상관측소가 노란 점과 빨간 점으로 표시되어 있습니다.

기상관측소 명을 보려면 표시 위로 마우스를 이동하세요.

날씨 관측과 예보를 보려면 클릭하세요.

지도 변경 : 확대하려면 엑스 표시가 있는 녹색 버튼, 축소하려면 빼기 표시가 있는 녹색 버튼, 다음 페이지의 지도를 보려면 녹색 화살표를 클릭하세요.


METAR-TAF: